^^
Station Historical Data
Daily Summary for May 17, 2017 Units:  Metric    English   Both
« Previous Day
Next Day »
Daily Weekly Monthly Yearly Custom
  High: Low: Average:
Temperature: 28.9 °C 11.3 °C 18.2 °C
Dew Point: 0.8 °C -3.5 °C -1.7 °C
Humidity: 38% 14% 28%
Wind Speed: 17.7km/h 0km/h 1.1km/h
Wind Gust: 19.3km/h - -
Wind- - NNW
Pressure: 1018.8 hPa 1014.8 hPa -
Precipitation: 0 mm    
Historical Graphs
 
 
Tabular Data for May 17, 2017
Time Temperature Dew Point Pressure Wind Wind Speed Wind Gust Humidity Rainfall Rate (Hourly) solar Conditions
00:24 14.7 °C -1.8 °C 1017.8 hPa Calm     32% 0 mm 0.0 W/m2
00:30 14.5 °C -2 °C 1017.8 hPa Calm     32% 0 mm 0.0 W/m2
00:35 14.2 °C -2.3 °C 1017.8 hPa Calm     32% 0 mm 0.0 W/m2
00:40 14 °C -2.4 °C 1017.8 hPa Calm     32% 0 mm 0.0 W/m2
00:49 13.4 °C -1.8 °C 1017.8 hPa Calm     35% 0 mm 0.0 W/m2
00:54 13.2 °C -2.3 °C 1017.8 hPa Calm     34% 0 mm 0.0 W/m2
00:59 12.9 °C -1.8 °C 1017.8 hPa Calm     36% 0 mm 0.0 W/m2
01:04 12.8 °C -1.9 °C 1017.8 hPa Calm     36% 0 mm 0.0 W/m2
01:10 12.7 °C -2 °C 1017.8 hPa Calm     36% 0 mm 0.0 W/m2
01:15 12.7 °C -1.6 °C 1017.8 hPa Calm     37% 0 mm 0.0 W/m2
01:20 12.6 °C -2.1 °C 1017.8 hPa Calm     36% 0 mm 0.0 W/m2
01:25 12.5 °C -2.6 °C 1017.8 hPa Calm     35% 0 mm 0.0 W/m2
01:31 12.3 °C -2 °C 1017.8 hPa Calm     37% 0 mm 0.0 W/m2
01:36 12.2 °C -2.4 °C 1017.8 hPa Calm     36% 0 mm 0.0 W/m2
01:41 12.2 °C -1.7 °C 1017.8 hPa Calm     38% 0 mm 0.0 W/m2
01:47 12.3 °C -2 °C 1017.8 hPa Calm     37% 0 mm 0.0 W/m2
01:52 12.6 °C -1.7 °C 1017.5 hPa Calm     37% 0 mm 0.0 W/m2
02:02 12.4 °C -2.3 °C 1017.5 hPa Calm     36% 0 mm 0.0 W/m2
02:08 12.2 °C -2.4 °C 1017.5 hPa Calm     36% 0 mm 0.0 W/m2
02:13 12.1 °C -2.2 °C 1017.5 hPa Calm     37% 0 mm 0.0 W/m2
02:18 12 °C -2.2 °C 1017.5 hPa Calm     37% 0 mm 0.0 W/m2
02:23 11.9 °C -2.3 °C 1017.5 hPa Calm     37% 0 mm 0.0 W/m2
02:28 11.8 °C -2.4 °C 1017.5 hPa Calm     37% 0 mm 0.0 W/m2
02:33 11.8 °C -2.4 °C 1017.5 hPa Calm     37% 0 mm 0.0 W/m2
02:39 12.1 °C -2.5 °C 1017.5 hPa Calm     36% 0 mm 0.0 W/m2
02:44 12.1 °C -2.5 °C 1017.5 hPa Calm     36% 0 mm 0.0 W/m2
02:49 12.2 °C -2.4 °C 1017.5 hPa Calm     36% 0 mm 0.0 W/m2
02:54 12.2 °C -2.8 °C 1017.5 hPa Calm     35% 0 mm 0.0 W/m2
03:04 11.8 °C -2.8 °C 1017.5 hPa Calm     36% 0 mm 0.0 W/m2
03:15 11.6 °C -2.6 °C 1017.5 hPa Calm     37% 0 mm 0.0 W/m2
03:25 11.6 °C -3.4 °C 1017.5 hPa Calm     35% 0 mm 0.0 W/m2
03:30 11.3 °C -3.2 °C 1017.5 hPa Calm     36% 0 mm 0.0 W/m2
03:35 11.3 °C -3.2 °C 1017.5 hPa Calm     36% 0 mm 0.0 W/m2
03:40 11.4 °C -2.8 °C 1017.2 hPa Calm     37% 0 mm 0.0 W/m2
03:45 11.5 °C -3.1 °C 1017.2 hPa Calm     36% 0 mm 0.0 W/m2
03:51 11.5 °C -3.1 °C 1017.5 hPa Calm     36% 0 mm 0.0 W/m2
04:02 11.4 °C -2.8 °C 1017.5 hPa Calm     37% 0 mm 0.0 W/m2
04:07 11.5 °C -2.7 °C 1017.5 hPa Calm     37% 0 mm 0.0 W/m2
04:12 11.6 °C -3 °C 1017.5 hPa Calm     36% 0 mm 0.0 W/m2
04:17 11.4 °C -3.2 °C 1017.5 hPa Calm     36% 0 mm 0.0 W/m2
04:22 11.4 °C -2.8 °C 1017.5 hPa Calm     37% 0 mm 0.0 W/m2
04:32 12.2 °C -2.4 °C 1017.5 hPa Calm     36% 0 mm 0.0 W/m2
04:37 12.4 °C -2.6 °C 1017.5 hPa Calm     35% 0 mm 0.0 W/m2
04:43 12.4 °C -2.6 °C 1017.5 hPa Calm     35% 0 mm 0.0 W/m2
04:48 12.5 °C -2.6 °C 1017.5 hPa Calm     35% 0 mm 0.0 W/m2
04:53 12.6 °C -2.5 °C 1017.5 hPa Calm     35% 0 mm 0.0 W/m2
04:58 12.7 °C -2.4 °C 1017.5 hPa Calm     35% 0 mm 0.0 W/m2
05:08 12.6 °C -2.5 °C 1017.5 hPa Calm     35% 0 mm 0.0 W/m2
05:18 12.8 °C -2.3 °C 1017.5 hPa Calm     35% 0 mm 0.0 W/m2
05:23 12.8 °C -2.3 °C 1017.5 hPa Calm     35% 0 mm 0.0 W/m2
05:28 12.7 °C -2 °C 1017.5 hPa Calm     36% 0 mm 0.0 W/m2
05:33 13.4 °C -1.8 °C 1017.5 hPa Calm     35% 0 mm 0.0 W/m2
05:39 13.8 °C -1.8 °C 1017.8 hPa Calm     34% 0 mm 0.0 W/m2
05:44 13.9 °C -2.1 °C 1017.8 hPa Calm     33% 0 mm 0.0 W/m2
05:49 13.8 °C -2.2 °C 1017.8 hPa Calm     33% 0 mm 0.0 W/m2
05:54 13.7 °C -1.9 °C 1017.8 hPa Calm     34% 0 mm 0.0 W/m2
06:00 13.8 °C -1.8 °C 1017.8 hPa Calm     34% 0 mm 0.0 W/m2
06:05 14.1 °C -1.9 °C 1017.8 hPa Calm     33% 0 mm 0.0 W/m2
06:10 14.2 °C -1.9 °C 1018.2 hPa Calm     33% 0 mm 0.0 W/m2
06:15 14.2 °C -1.9 °C 1018.2 hPa Calm     33% 0 mm 0.0 W/m2
06:21 14.3 °C -1.8 °C 1018.2 hPa Calm     33% 0 mm 5.0 W/m2
06:31 13.9 °C -2.1 °C 1018.2 hPa Calm     33% 0 mm 11.0 W/m2
06:46 13.5 °C -2.1 °C 1018.2 hPa Calm     34% 0 mm 19.0 W/m2
06:51 13.4 °C -2.2 °C 1018.5 hPa Calm     34% 0 mm 26.0 W/m2
06:56 13.6 °C -2 °C 1018.5 hPa Calm     34% 0 mm 26.0 W/m2
07:01 13.7 °C -1.9 °C 1018.5 hPa Calm     34% 0 mm 28.0 W/m2
07:06 13.7 °C -1.9 °C 1018.5 hPa Calm     34% 0 mm 30.0 W/m2
07:21 15.1 °C -1.5 °C 1018.5 hPa Calm     32% 0 mm 128.0 W/m2
07:40 16.6 °C -1.1 °C 1018.8 hPa NNW 7.9 km/h 8 km/h 30% 0 mm 178.0 W/m2
07:53 17.3 °C -1.4 °C 1018.8 hPa NNW 6.4 km/h 9.7 km/h 28% 0 mm 214.0 W/m2
08:07 18.5 °C -0.9 °C 1018.8 hPa Calm     27% 0 mm 265.0 W/m2
08:20 19.3 °C -0.7 °C 1018.8 hPa Calm     26% 0 mm 309.0 W/m2
08:23 19.5 °C -0.5 °C 1018.8 hPa Calm   8 km/h 26% 0 mm 325.0 W/m2
09:04 21.3 °C -0.1 °C 1018.8 hPa Calm   8 km/h 24% 0 mm 434.0 W/m2
09:11 21.5 °C -0.5 °C 1018.8 hPa NNW 7.9 km/h 14.5 km/h 23% 0 mm 446.0 W/m2
09:19 21.6 °C 0.2 °C 1018.8 hPa Calm   8 km/h 24% 0 mm 473.0 W/m2
09:24 21.8 °C 0.3 °C 1018.8 hPa NNW 9.7 km/h 9.7 km/h 24% 0 mm 482.0 W/m2
09:29 21.8 °C -0.3 °C 1018.8 hPa NNW 6.4 km/h 9.7 km/h 23% 0 mm 497.0 W/m2
09:41 22.2 °C 0.7 °C 1018.8 hPa Calm   11.3 km/h 24% 0 mm 510.0 W/m2
09:44 22.3 °C 0.8 °C 1018.8 hPa Calm   9.7 km/h 24% 0 mm 526.0 W/m2
09:50 22.4 °C 0.2 °C 1018.8 hPa Calm   9.7 km/h 23% 0 mm 536.0 W/m2
10:15 23.3 °C 0.4 °C 1018.5 hPa Calm     22% 0 mm 582.0 W/m2
10:20 23.4 °C -0.2 °C 1018.5 hPa NNW 1.4 km/h 12.9 km/h 21% 0 mm 585.0 W/m2
10:25 23.4 °C -0.2 °C 1018.5 hPa NNW 9.7 km/h 9.7 km/h 21% 0 mm 594.0 W/m2
10:31 23.6 °C 0 °C 1018.2 hPa Calm   11.3 km/h 21% 0 mm 598.0 W/m2
10:35 23.7 °C -0.6 °C 1018.2 hPa NNW 7.9 km/h 8 km/h 20% 0 mm 605.0 W/m2
10:40 23.8 °C -0.5 °C 1018.2 hPa NNW 11.1 km/h 11.3 km/h 20% 0 mm 610.0 W/m2
10:46 24 °C -0.3 °C 1018.2 hPa Calm   11.3 km/h 20% 0 mm 617.0 W/m2
10:56 24.4 °C -0.7 °C 1018.2 hPa Calm   19.3 km/h 19% 0 mm 626.0 W/m2
11:02 24.5 °C -0.6 °C 1017.8 hPa Calm     19% 0 mm 631.0 W/m2
11:11 24.9 °C -1.1 °C 1017.8 hPa Calm   9.7 km/h 18% 0 mm 636.0 W/m2
11:16 25.2 °C -0.8 °C 1017.8 hPa Calm     18% 0 mm 638.0 W/m2
11:26 25.7 °C -0.4 °C 1017.8 hPa Calm   12.9 km/h 18% 0 mm 645.0 W/m2
11:31 25.7 °C -0.4 °C 1017.5 hPa NNW 17.7 km/h 17.7 km/h 18% 0 mm 643.0 W/m2
11:41 25.7 °C -0.4 °C 1017.5 hPa NNW 11.1 km/h 11.3 km/h 18% 0 mm 645.0 W/m2
11:56 26.3 °C -0.7 °C 1017.2 hPa Calm   9.7 km/h 17% 0 mm 645.0 W/m2
12:07 26.3 °C -0.7 °C 1016.8 hPa Calm     17% 0 mm 642.0 W/m2
12:13 26.6 °C -0.5 °C 1016.8 hPa NNW 11.1 km/h 14.5 km/h 17% 0 mm 640.0 W/m2
12:21 26.8 °C -0.3 °C 1016.8 hPa NNW 11.1 km/h 11.3 km/h 17% 0 mm 633.0 W/m2
12:26 26.9 °C -0.2 °C 1016.5 hPa NNW 1.4 km/h 12.9 km/h 17% 0 mm 629.0 W/m2
12:37 27.4 °C -0.6 °C 1016.1 hPa NNW 3.2 km/h 12.9 km/h 16% 0 mm 624.0 W/m2
12:52 27.4 °C -0.6 °C 1016.1 hPa NNW 7.9 km/h 11.3 km/h 16% 0 mm 606.0 W/m2
13:07 27.7 °C -0.4 °C 1015.8 hPa NNW 9.7 km/h 11.3 km/h 16% 0 mm 589.0 W/m2
13:22 28.1 °C -1 °C 1015.5 hPa NNW 3.2 km/h 12.9 km/h 15% 0 mm 568.0 W/m2
13:37 28.1 °C -1 °C 1015.5 hPa NNW 1.4 km/h 14.5 km/h 15% 0 mm 540.0 W/m2
13:52 28.1 °C -1 °C 1015.5 hPa Calm   19.3 km/h 15% 0 mm 515.0 W/m2
14:08 28.5 °C -1.6 °C 1015.1 hPa Calm   8 km/h 14% 0 mm 480.0 W/m2
14:23 28.4 °C -1.7 °C 1015.1 hPa NNW 3.2 km/h 11.3 km/h 14% 0 mm 443.0 W/m2
14:40 28.9 °C -1.3 °C 1015.1 hPa Calm     14% 0 mm 406.0 W/m2
14:48 28.7 °C -1.4 °C 1015.1 hPa Calm     14% 0 mm 380.0 W/m2
14:54 28.7 °C -1.4 °C 1015.1 hPa Calm   6.4 km/h 14% 0 mm 367.0 W/m2
14:59 28.7 °C -1.4 °C 1015.1 hPa Calm   6.4 km/h 14% 0 mm 353.0 W/m2
15:06 28.8 °C -1.4 °C 1015.1 hPa Calm     14% 0 mm 339.0 W/m2
15:14 28.8 °C -1.4 °C 1015.1 hPa Calm     14% 0 mm 311.0 W/m2
15:29 28.9 °C -1.3 °C 1015.1 hPa Calm     14% 0 mm 265.0 W/m2
15:39 28.8 °C -1.4 °C 1014.8 hPa NNW 9.7 km/h 11.3 km/h 14% 0 mm 236.0 W/m2
15:55 28.3 °C -1.8 °C 1014.8 hPa Calm     14% 0 mm 178.0 W/m2
16:05 28.7 °C -1.4 °C 1014.8 hPa Calm     14% 0 mm 134.0 W/m2
16:27 28.7 °C -1.4 °C 1015.1 hPa Calm     14% 0 mm 83.0 W/m2
16:41 28.2 °C -1.8 °C 1014.8 hPa Calm     14% 0 mm 39.0 W/m2
16:55 27.7 °C -1.3 °C 1015.1 hPa Calm     15% 0 mm 12.0 W/m2
17:07 26.9 °C -1.9 °C 1015.1 hPa Calm     15% 0 mm 7.0 W/m2
17:18 25.6 °C -2.1 °C 1015.1 hPa Calm     16% 0 mm 0.0 W/m2
20:13 18.9 °C -2.1 °C 1015.8 hPa Calm     24% 0 mm 0.0 W/m2
20:35 17.9 °C -3.5 °C 1016.1 hPa Calm     23% 0 mm 0.0 W/m2
20:51 17.2 °C -3 °C 1016.1 hPa Calm     25% 0 mm 0.0 W/m2
21:00 16.9 °C -2.7 °C 1016.5 hPa Calm     26% 0 mm 0.0 W/m2
21:15 17.3 °C -2.9 °C 1016.5 hPa Calm     25% 0 mm 0.0 W/m2
21:38 16.7 °C -2.4 °C 1016.5 hPa Calm     27% 0 mm 0.0 W/m2
22:00 15.8 °C -2.7 °C 1016.8 hPa Calm     28% 0 mm 0.0 W/m2
22:17 14.9 °C -3 °C 1016.8 hPa Calm     29% 0 mm 0.0 W/m2
22:29 14.7 °C -3.2 °C 1016.8 hPa Calm     29% 0 mm 0.0 W/m2
22:37 14.4 °C -2.5 °C 1016.8 hPa Calm     31% 0 mm 0.0 W/m2
Canyon Roadhouse, Fishriver Canyon, Namibia
Compliments of Weather Underground - 2.25 mb